This is the latest recevied weather packets stored in our database for station/object KK4PWJ-13. If no packets are shown the sender has not sent any weather packets the latest 10 day(s).
| Time | Temp. | Humidity | Pressure | Rain* | Wind** | Luminosity | Snow |
|---|---|---|---|---|---|---|---|
| 1777508865 | 19.44° C | 90% | 1005.8 hPa | 0 mm | - | 0 W/m² | - |
| 1777508259 | 19.44° C | 89% | 1005.8 hPa | 0 mm | - | 0 W/m² | - |
| 1777507048 | 20° C | 86% | 1005.4 hPa | 0 mm | - | 1 W/m² | - |
| 1777503709 | 22.22° C | 76% | 1005.2 hPa | 0 mm | - | 18 W/m² | - |
| 1777501587 | 22.78° C | 73% | 1005.6 hPa | 0 mm | - | 64 W/m² | - |
| 1777501284 | 22.78° C | 73% | 1005.7 hPa | 0 mm | - | 48 W/m² | - |
| 1777500680 | 23.33° C | 72% | 1005.8 hPa | 0 mm | - | 57 W/m² | - |
| 1777500376 | 23.33° C | 68% | 1005.9 hPa | 0 mm | - | 23 W/m² | - |
| 1777499769 | 23.89° C | 69% | 1006 hPa | 0 mm | - | 81 W/m² | - |
| 1777496433 | 23.89° C | 72% | 1006 hPa | 0 mm | - | 113 W/m² | - |
| 1777496130 | 23.33° C | 72% | 1006.1 hPa | 0 mm | - | 135 W/m² | - |
| 1777495826 | 23.33° C | 72% | 1006.1 hPa | 0 mm | - | 107 W/m² | - |
| 1777495218 | 23.33° C | 71% | 1006.1 hPa | 0 mm | - | 125 W/m² | - |
| 1777494310 | 23.33° C | 73% | 1006.5 hPa | 0 mm | - | 153 W/m² | - |
| 1777493402 | 23.89° C | 70% | 1006.8 hPa | 0 mm | - | 580 W/m² | - |
| 1777491884 | 23.89° C | 68% | 1007.6 hPa | 0 mm | - | 622 W/m² | - |
| 1777491278 | 23.33° C | 71% | 1007.9 hPa | 0 mm | - | 720 W/m² | - |
| 1777490974 | 22.78° C | 74% | 1007.8 hPa | 0 mm | - | 470 W/m² | - |
| 1777490670 | 21.11° C | 79% | 1008 hPa | 0 mm | - | 734 W/m² | - |
| 1777490366 | 20° C | 85% | 1008 hPa | 0 mm | - | 768 W/m² | - |
| 1777490064 | 20° C | 85% | 1008.6 hPa | 0 mm | - | 119 W/m² | - |
| 1777489761 | 20° C | 84% | 1008.6 hPa | 0 mm | - | 105 W/m² | - |
| 1777489155 | 19.44° C | 86% | 1008.6 hPa | 0 mm | - | 169 W/m² | - |
| 1777487945 | 19.44° C | 84% | 1008.7 hPa | 0 mm | - | 75 W/m² | - |
| 1777487339 | 19.44° C | 84% | 1008.8 hPa | 0 mm | - | 79 W/m² | - |
* Rain latest hour (hover to see other rain measurements)
** Current wind speed in m/s (hover to see current wind gust speed)